Terminal Aerodrome Forecast
Issued by NWS Springfield, MO

Home | Current Version | Previous Version | Text Only | Print | Product List | Glossary On
Versions: 1 2 3 4 5 6 7 8 9 10 11 12 13 14 15 16 17 18
920
FTUS43 KSGF 101125
TAFSGF
TAF
KSGF 101125Z 1012/1112 VRB04KT P6SM SCT100
     FM101400 18008KT P6SM BKN100
     FM101900 20010G18KT P6SM SCT100
     FM110000 21008KT P6SM SCT120=

USA.gov is the U.S. government's official web portal to all federal, state and local government web resources and services.